JBM3215 EHEH-LIMC
Flight info
| Callsign | JBM3215 |
|---|---|
| Flight time | 1h 25m |
| Altitude | 39000 |
| Route | LNO Z283 SOPOK Y863 OGLOR DCT EMGOD L607 ABUKA/N0459F380 DCT KRH DCT NATOR/N0460F390 DCT TRA DCT RIPUS DCT GERSA DCT SOSON DCT DEGAD Z424 BASGO/N0471F290 Z424 AKASU/N0410F190 Z424 RIXUV |
| Aircraft | R722/M-SDFGRWY/S |
Departure
| Time | 2026-05-05 18:32 |
|---|---|
| Airport | Eindhoven Airport (EHEH) |
Arrival
| Time | 2026-05-05 19:57 |
|---|---|
| Airport | Milan Malpensa International Airport (LIMC) |
| Time | Latitude | Longitude | Altitude | Speed | Heading |
|---|---|---|---|---|---|
| 2026-05-05 18:20 | 51.45656 | 5.38681 | 105 ft | 0 kts | 35° |
| 2026-05-05 18:24 | 51.45657 | 5.38682 | 78 ft | 1 kts | 35° |
| 2026-05-05 18:24 | 51.45690 | 5.38720 | 78 ft | 7 kts | 35° |
| 2026-05-05 18:25 | 51.45723 | 5.38757 | 76 ft | 4 kts | 35° |
| 2026-05-05 18:25 | 51.45732 | 5.38767 | 78 ft | 5 kts | 35° |
| 2026-05-05 18:25 | 51.45751 | 5.38788 | 77 ft | 0 kts | 35° |
| 2026-05-05 18:26 | 51.45765 | 5.38796 | 77 ft | 4 kts | 0° |
| 2026-05-05 18:26 | 51.45798 | 5.38765 | 78 ft | 7 kts | 309° |
| 2026-05-05 18:26 | 51.45830 | 5.38692 | 74 ft | 12 kts | 305° |
| 2026-05-05 18:27 | 51.45892 | 5.38554 | 85 ft | 16 kts | 306° |
| 2026-05-05 18:27 | 51.45959 | 5.38405 | 81 ft | 17 kts | 305° |
| 2026-05-05 18:27 | 51.45993 | 5.38285 | 72 ft | 10 kts | 253° |
| 2026-05-05 18:27 | 51.45934 | 5.38202 | 70 ft | 15 kts | 213° |
| 2026-05-05 18:28 | 51.45684 | 5.37926 | 73 ft | 25 kts | 216° |
| 2026-05-05 18:28 | 51.45539 | 5.37758 | 70 ft | 27 kts | 216° |
| 2026-05-05 18:28 | 51.45382 | 5.37583 | 73 ft | 28 kts | 214° |
| 2026-05-05 18:29 | 51.45238 | 5.37422 | 74 ft | 25 kts | 215° |
| 2026-05-05 18:29 | 51.45088 | 5.37254 | 71 ft | 27 kts | 214° |
| 2026-05-05 18:29 | 51.44939 | 5.37088 | 73 ft | 26 kts | 215° |
| 2026-05-05 18:29 | 51.44786 | 5.36915 | 69 ft | 28 kts | 215° |
| 2026-05-05 18:30 | 51.44624 | 5.36735 | 75 ft | 25 kts | 214° |
| 2026-05-05 18:30 | 51.44482 | 5.36576 | 71 ft | 26 kts | 215° |
| 2026-05-05 18:30 | 51.44333 | 5.36409 | 78 ft | 27 kts | 215° |
| 2026-05-05 18:30 | 51.44174 | 5.36232 | 74 ft | 29 kts | 213° |
| 2026-05-05 18:31 | 51.44047 | 5.36091 | 75 ft | 16 kts | 212° |
| 2026-05-05 18:31 | 51.43959 | 5.36134 | 78 ft | 15 kts | 127° |
| 2026-05-05 18:31 | 51.43970 | 5.36283 | 73 ft | 19 kts | 38° |
| 2026-05-05 18:31 | 51.44264 | 5.36613 | 67 ft | 95 kts | 34° |
| 2026-05-05 18:32 | 51.45033 | 5.37464 | 208 ft | 161 kts | 34° |
| 2026-05-05 18:32 | 51.46070 | 5.38595 | 645 ft | 203 kts | 33° |
| 2026-05-05 18:32 | 51.47297 | 5.39934 | 1070 ft | 216 kts | 34° |
| 2026-05-05 18:32 | 51.48501 | 5.41276 | 1218 ft | 213 kts | 35° |
| 2026-05-05 18:33 | 51.49689 | 5.42633 | 1302 ft | 209 kts | 36° |
| 2026-05-05 18:33 | 51.50840 | 5.44058 | 1427 ft | 211 kts | 44° |
| 2026-05-05 18:33 | 51.51627 | 5.46018 | 1520 ft | 213 kts | 71° |
| 2026-05-05 18:33 | 51.51731 | 5.48392 | 1600 ft | 217 kts | 91° |
| 2026-05-05 18:34 | 51.51426 | 5.50776 | 1861 ft | 220 kts | 105° |
| 2026-05-05 18:34 | 51.50831 | 5.53065 | 1952 ft | 223 kts | 109° |
| 2026-05-05 18:34 | 51.50117 | 5.55366 | 2129 ft | 253 kts | 113° |
| 2026-05-05 18:34 | 51.49391 | 5.57930 | 2755 ft | 254 kts | 105° |
| 2026-05-05 18:35 | 51.48978 | 5.60641 | 3508 ft | 253 kts | 97° |
| 2026-05-05 18:35 | 51.48611 | 5.63430 | 4303 ft | 261 kts | 109° |
| 2026-05-05 18:35 | 51.47679 | 5.65880 | 5276 ft | 264 kts | 129° |
| 2026-05-05 18:35 | 51.46294 | 5.67866 | 6293 ft | 271 kts | 142° |
| 2026-05-05 18:36 | 51.44698 | 5.69536 | 7280 ft | 276 kts | 148° |
| 2026-05-05 18:36 | 51.43046 | 5.71141 | 8305 ft | 280 kts | 147° |
| 2026-05-05 18:36 | 51.41413 | 5.72863 | 9329 ft | 284 kts | 146° |
| 2026-05-05 18:36 | 51.39739 | 5.74677 | 9862 ft | 295 kts | 146° |
| 2026-05-05 18:37 | 51.38039 | 5.76469 | 9864 ft | 292 kts | 147° |
| 2026-05-05 18:37 | 51.36344 | 5.78239 | 9862 ft | 290 kts | 147° |
| 2026-05-05 18:37 | 51.35231 | 5.79412 | 10015 ft | 291 kts | 147° |
| 2026-05-05 18:37 | 51.33578 | 5.81154 | 10745 ft | 275 kts | 147° |
| 2026-05-05 18:38 | 51.32023 | 5.82788 | 12324 ft | 265 kts | 147° |
| 2026-05-05 18:38 | 51.30456 | 5.84434 | 13386 ft | 275 kts | 147° |
| 2026-05-05 18:38 | 51.28320 | 5.86672 | 14755 ft | 278 kts | 148° |
| 2026-05-05 18:38 | 51.26682 | 5.88341 | 15725 ft | 282 kts | 149° |
| 2026-05-05 18:39 | 51.25535 | 5.89427 | 16350 ft | 285 kts | 154° |
| 2026-05-05 18:39 | 51.23669 | 5.90476 | 17276 ft | 287 kts | 168° |
| 2026-05-05 18:39 | 51.21715 | 5.90986 | 18234 ft | 289 kts | 175° |
| 2026-05-05 18:39 | 51.19704 | 5.91298 | 19073 ft | 292 kts | 175° |
| 2026-05-05 18:40 | 51.17677 | 5.91687 | 19875 ft | 296 kts | 173° |
| 2026-05-05 18:40 | 51.15623 | 5.92159 | 20672 ft | 300 kts | 172° |
| 2026-05-05 18:40 | 51.13539 | 5.92623 | 21493 ft | 304 kts | 173° |
| 2026-05-05 18:40 | 51.11424 | 5.93048 | 22327 ft | 308 kts | 173° |
| 2026-05-05 18:41 | 51.09282 | 5.93184 | 23081 ft | 312 kts | 187° |
| 2026-05-05 18:41 | 51.07163 | 5.92518 | 23776 ft | 317 kts | 194° |
| 2026-05-05 18:41 | 51.05050 | 5.91496 | 24472 ft | 319 kts | 197° |
| 2026-05-05 18:41 | 51.02926 | 5.90438 | 25141 ft | 323 kts | 194° |
| 2026-05-05 18:42 | 51.00744 | 5.89498 | 25834 ft | 325 kts | 192° |
| 2026-05-05 18:42 | 50.98542 | 5.88579 | 26513 ft | 329 kts | 193° |
| 2026-05-05 18:42 | 50.96333 | 5.87585 | 27208 ft | 332 kts | 194° |
| 2026-05-05 18:42 | 50.94103 | 5.86565 | 27853 ft | 335 kts | 193° |
| 2026-05-05 18:43 | 50.91843 | 5.85585 | 28524 ft | 338 kts | 192° |
| 2026-05-05 18:43 | 50.89557 | 5.84598 | 29218 ft | 342 kts | 193° |
| 2026-05-05 18:43 | 50.87293 | 5.83590 | 29880 ft | 345 kts | 193° |
| 2026-05-05 18:43 | 50.84970 | 5.82561 | 30473 ft | 348 kts | 193° |
| 2026-05-05 18:44 | 50.82629 | 5.81534 | 31121 ft | 349 kts | 192° |
| 2026-05-05 18:44 | 50.80281 | 5.80506 | 31745 ft | 351 kts | 192° |
| 2026-05-05 18:44 | 50.77933 | 5.79476 | 32355 ft | 353 kts | 192° |
| 2026-05-05 18:44 | 50.75555 | 5.78431 | 32969 ft | 355 kts | 192° |
| 2026-05-05 18:45 | 50.73171 | 5.77390 | 33564 ft | 357 kts | 192° |
| 2026-05-05 18:45 | 50.70760 | 5.76337 | 34125 ft | 360 kts | 192° |
| 2026-05-05 18:45 | 50.68328 | 5.75276 | 34566 ft | 365 kts | 192° |
| 2026-05-05 18:45 | 50.65904 | 5.74216 | 35019 ft | 369 kts | 193° |
| 2026-05-05 18:46 | 50.63406 | 5.73124 | 35422 ft | 374 kts | 193° |
| 2026-05-05 18:46 | 50.60883 | 5.72030 | 35831 ft | 378 kts | 193° |
| 2026-05-05 18:46 | 50.58294 | 5.71314 | 36188 ft | 380 kts | 180° |
| 2026-05-05 18:46 | 50.55638 | 5.71462 | 36563 ft | 384 kts | 174° |
| 2026-05-05 18:47 | 50.52970 | 5.71995 | 36946 ft | 388 kts | 171° |
| 2026-05-05 18:47 | 50.50289 | 5.72672 | 37295 ft | 393 kts | 172° |
| 2026-05-05 18:47 | 50.47555 | 5.73207 | 37663 ft | 397 kts | 174° |
| 2026-05-05 18:47 | 50.44794 | 5.73649 | 38029 ft | 401 kts | 174° |
| 2026-05-05 18:48 | 50.42043 | 5.74159 | 38381 ft | 406 kts | 173° |
| 2026-05-05 18:48 | 50.39233 | 5.74741 | 38679 ft | 410 kts | 173° |
| 2026-05-05 18:48 | 50.36388 | 5.75299 | 38984 ft | 413 kts | 174° |
| 2026-05-05 18:48 | 50.33530 | 5.75848 | 39261 ft | 417 kts | 172° |
| 2026-05-05 18:49 | 50.30704 | 5.77088 | 39220 ft | 431 kts | 156° |
| 2026-05-05 18:49 | 50.28039 | 5.79436 | 39041 ft | 450 kts | 144° |
| 2026-05-05 18:49 | 50.25716 | 5.82798 | 38902 ft | 459 kts | 131° |
| 2026-05-05 18:49 | 50.23960 | 5.86958 | 38864 ft | 460 kts | 118° |
| 2026-05-05 18:50 | 50.21914 | 5.96299 | 38841 ft | 458 kts | 105° |
| 2026-05-05 18:50 | 50.20513 | 6.06167 | 38834 ft | 462 kts | 107° |
| 2026-05-05 18:51 | 50.18770 | 6.15653 | 38807 ft | 456 kts | 104° |
| 2026-05-05 18:51 | 50.18383 | 6.20590 | 38817 ft | 461 kts | 92° |
| 2026-05-05 18:51 | 50.18480 | 6.25587 | 38815 ft | 463 kts | 88° |
| 2026-05-05 18:52 | 50.19284 | 6.35655 | 38815 ft | 474 kts | 85° |
| 2026-05-05 18:52 | 50.19842 | 6.45856 | 38812 ft | 472 kts | 88° |
| 2026-05-05 18:53 | 50.20484 | 6.56040 | 38807 ft | 472 kts | 85° |
| 2026-05-05 18:53 | 50.21032 | 6.66264 | 38803 ft | 471 kts | 91° |
| 2026-05-05 18:54 | 50.20751 | 6.76440 | 38808 ft | 469 kts | 96° |
| 2026-05-05 18:54 | 50.20581 | 6.86645 | 38811 ft | 471 kts | 92° |
| 2026-05-05 18:55 | 50.20403 | 6.96782 | 38812 ft | 471 kts | 95° |
| 2026-05-05 18:55 | 50.20180 | 7.07005 | 38808 ft | 471 kts | 93° |
| 2026-05-05 18:56 | 50.19992 | 7.17206 | 38809 ft | 471 kts | 95° |
| 2026-05-05 18:56 | 50.19753 | 7.27419 | 38804 ft | 471 kts | 94° |
| 2026-05-05 18:57 | 50.18760 | 7.37436 | 38811 ft | 466 kts | 109° |
| 2026-05-05 18:57 | 50.16642 | 7.46980 | 38829 ft | 465 kts | 112° |
| 2026-05-05 18:58 | 50.14653 | 7.56508 | 38829 ft | 466 kts | 110° |
| 2026-05-05 18:58 | 50.12612 | 7.66081 | 38827 ft | 465 kts | 112° |
| 2026-05-05 18:59 | 50.10555 | 7.75649 | 38818 ft | 466 kts | 110° |
| 2026-05-05 18:59 | 50.08513 | 7.85207 | 38825 ft | 465 kts | 111° |
| 2026-05-05 19:00 | 50.05835 | 7.94284 | 38847 ft | 461 kts | 124° |
| 2026-05-05 19:00 | 50.02172 | 8.02440 | 38856 ft | 459 kts | 129° |
| 2026-05-05 19:01 | 49.98644 | 8.10620 | 38859 ft | 460 kts | 126° |
| 2026-05-05 19:01 | 49.95051 | 8.18820 | 38861 ft | 458 kts | 128° |
| 2026-05-05 19:02 | 49.91448 | 8.27010 | 38842 ft | 460 kts | 127° |
| 2026-05-05 19:02 | 49.87862 | 8.35181 | 38842 ft | 458 kts | 128° |
| 2026-05-05 19:03 | 49.84093 | 8.43094 | 38818 ft | 455 kts | 135° |
| 2026-05-05 19:03 | 49.79542 | 8.49775 | 38826 ft | 452 kts | 142° |
| 2026-05-05 19:04 | 49.74889 | 8.56340 | 38831 ft | 453 kts | 141° |
| 2026-05-05 19:04 | 49.72373 | 8.59202 | 38842 ft | 448 kts | 153° |
| 2026-05-05 19:04 | 49.69562 | 8.61210 | 38842 ft | 445 kts | 164° |
| 2026-05-05 19:05 | 49.63553 | 8.63353 | 38840 ft | 442 kts | 173° |
| 2026-05-05 19:05 | 49.57490 | 8.64781 | 38844 ft | 442 kts | 171° |
| 2026-05-05 19:06 | 49.51454 | 8.66618 | 38844 ft | 442 kts | 172° |
| 2026-05-05 19:06 | 49.45418 | 8.67635 | 38847 ft | 438 kts | 184° |
| 2026-05-05 19:07 | 49.39379 | 8.66531 | 38844 ft | 437 kts | 191° |
| 2026-05-05 19:07 | 49.33358 | 8.65203 | 38846 ft | 438 kts | 187° |
| 2026-05-05 19:08 | 49.27307 | 8.64067 | 38837 ft | 437 kts | 189° |
| 2026-05-05 19:08 | 49.21284 | 8.62797 | 38837 ft | 437 kts | 188° |
| 2026-05-05 19:09 | 49.15821 | 8.61742 | 38832 ft | 437 kts | 188° |
| 2026-05-05 19:09 | 49.09787 | 8.60506 | 38833 ft | 437 kts | 188° |
| 2026-05-05 19:10 | 49.03792 | 8.59327 | 38832 ft | 438 kts | 188° |
| 2026-05-05 19:10 | 48.97755 | 8.58039 | 38832 ft | 438 kts | 191° |
| 2026-05-05 19:11 | 48.91835 | 8.55955 | 38835 ft | 437 kts | 194° |
| 2026-05-05 19:11 | 48.85869 | 8.54091 | 38837 ft | 437 kts | 192° |
| 2026-05-05 19:12 | 48.79919 | 8.52152 | 38838 ft | 437 kts | 193° |
| 2026-05-05 19:12 | 48.73972 | 8.50235 | 38839 ft | 437 kts | 192° |
| 2026-05-05 19:13 | 48.68021 | 8.48330 | 38842 ft | 437 kts | 193° |
| 2026-05-05 19:13 | 48.62110 | 8.46430 | 38845 ft | 437 kts | 193° |
| 2026-05-05 19:14 | 48.56171 | 8.44538 | 38848 ft | 436 kts | 193° |
| 2026-05-05 19:14 | 48.50233 | 8.42640 | 38850 ft | 437 kts | 193° |
| 2026-05-05 19:15 | 48.44290 | 8.40751 | 38851 ft | 436 kts | 193° |
| 2026-05-05 19:15 | 48.38341 | 8.38864 | 38852 ft | 437 kts | 193° |
| 2026-05-05 19:16 | 48.32398 | 8.36979 | 38859 ft | 437 kts | 193° |
| 2026-05-05 19:16 | 48.26497 | 8.35117 | 38855 ft | 437 kts | 193° |
| 2026-05-05 19:17 | 48.20540 | 8.33239 | 38874 ft | 437 kts | 193° |
| 2026-05-05 19:17 | 48.14483 | 8.32680 | 38877 ft | 441 kts | 176° |
| 2026-05-05 19:18 | 48.08418 | 8.34201 | 38882 ft | 443 kts | 171° |
| 2026-05-05 19:18 | 48.02388 | 8.35688 | 38890 ft | 442 kts | 174° |
| 2026-05-05 19:19 | 47.96308 | 8.37111 | 38887 ft | 443 kts | 172° |
| 2026-05-05 19:19 | 47.90232 | 8.38619 | 38885 ft | 442 kts | 173° |
| 2026-05-05 19:20 | 47.84431 | 8.39978 | 38896 ft | 443 kts | 173° |
| 2026-05-05 19:20 | 47.78460 | 8.41432 | 38894 ft | 442 kts | 173° |
| 2026-05-05 19:21 | 47.73360 | 8.42638 | 38901 ft | 442 kts | 173° |
| 2026-05-05 19:21 | 47.67288 | 8.44038 | 38885 ft | 441 kts | 175° |
| 2026-05-05 19:22 | 47.61202 | 8.44799 | 38884 ft | 439 kts | 178° |
| 2026-05-05 19:22 | 47.55116 | 8.45759 | 38879 ft | 440 kts | 176° |
| 2026-05-05 19:23 | 47.49067 | 8.46626 | 38888 ft | 439 kts | 178° |
| 2026-05-05 19:23 | 47.42969 | 8.47523 | 38881 ft | 440 kts | 176° |
| 2026-05-05 19:24 | 47.36890 | 8.48417 | 38881 ft | 439 kts | 177° |
| 2026-05-05 19:24 | 47.30802 | 8.49301 | 38884 ft | 439 kts | 177° |
| 2026-05-05 19:25 | 47.24708 | 8.50195 | 38894 ft | 440 kts | 177° |
| 2026-05-05 19:25 | 47.18650 | 8.51073 | 38910 ft | 441 kts | 177° |
| 2026-05-05 19:26 | 47.12544 | 8.51964 | 38912 ft | 441 kts | 177° |
| 2026-05-05 19:26 | 47.06440 | 8.52849 | 38936 ft | 441 kts | 177° |
| 2026-05-05 19:27 | 47.00368 | 8.53727 | 38943 ft | 442 kts | 178° |
| 2026-05-05 19:27 | 46.97302 | 8.54168 | 38691 ft | 444 kts | 178° |
| 2026-05-05 19:27 | 46.94250 | 8.54611 | 38084 ft | 436 kts | 178° |
| 2026-05-05 19:28 | 46.91254 | 8.55047 | 37490 ft | 429 kts | 178° |
| 2026-05-05 19:28 | 46.88319 | 8.55464 | 36954 ft | 419 kts | 179° |
| 2026-05-05 19:28 | 46.85439 | 8.55873 | 36419 ft | 414 kts | 178° |
| 2026-05-05 19:28 | 46.82592 | 8.56291 | 35885 ft | 408 kts | 179° |
| 2026-05-05 19:29 | 46.79788 | 8.56698 | 35358 ft | 402 kts | 179° |
| 2026-05-05 19:29 | 46.77014 | 8.57088 | 34843 ft | 397 kts | 180° |
| 2026-05-05 19:29 | 46.74321 | 8.57466 | 34302 ft | 391 kts | 180° |
| 2026-05-05 19:29 | 46.71602 | 8.57857 | 33799 ft | 386 kts | 181° |
| 2026-05-05 19:30 | 46.68981 | 8.58235 | 33287 ft | 380 kts | 180° |
| 2026-05-05 19:30 | 46.66379 | 8.58610 | 32796 ft | 376 kts | 180° |
| 2026-05-05 19:30 | 46.63782 | 8.58976 | 32301 ft | 373 kts | 181° |
| 2026-05-05 19:30 | 46.61211 | 8.59337 | 31827 ft | 369 kts | 181° |
| 2026-05-05 19:31 | 46.58665 | 8.59702 | 31352 ft | 366 kts | 181° |
| 2026-05-05 19:31 | 46.56144 | 8.60064 | 30873 ft | 363 kts | 181° |
| 2026-05-05 19:31 | 46.53639 | 8.60416 | 30399 ft | 360 kts | 181° |
| 2026-05-05 19:31 | 46.51158 | 8.60764 | 29900 ft | 358 kts | 181° |
| 2026-05-05 19:32 | 46.48698 | 8.61116 | 29429 ft | 354 kts | 180° |
| 2026-05-05 19:32 | 46.46251 | 8.61439 | 28944 ft | 349 kts | 183° |
| 2026-05-05 19:32 | 46.43884 | 8.61144 | 28520 ft | 338 kts | 197° |
| 2026-05-05 19:32 | 46.41610 | 8.60321 | 27427 ft | 346 kts | 190° |
| 2026-05-05 19:33 | 46.39190 | 8.60513 | 25966 ft | 359 kts | 176° |
| 2026-05-05 19:33 | 46.36742 | 8.61319 | 25028 ft | 357 kts | 169° |
| 2026-05-05 19:33 | 46.34435 | 8.62318 | 24472 ft | 343 kts | 169° |
| 2026-05-05 19:33 | 46.32077 | 8.63172 | 22993 ft | 352 kts | 172° |
| 2026-05-05 19:34 | 46.29666 | 8.63930 | 21449 ft | 359 kts | 172° |
| 2026-05-05 19:34 | 46.27303 | 8.64759 | 21017 ft | 330 kts | 170° |
| 2026-05-05 19:34 | 46.25143 | 8.65575 | 21006 ft | 317 kts | 171° |
| 2026-05-05 19:35 | 46.20832 | 8.67075 | 20997 ft | 321 kts | 171° |
| 2026-05-05 19:35 | 46.18664 | 8.67832 | 20995 ft | 320 kts | 171° |
| 2026-05-05 19:35 | 46.16527 | 8.68592 | 20997 ft | 321 kts | 171° |
| 2026-05-05 19:35 | 46.14335 | 8.69364 | 19951 ft | 331 kts | 171° |
| 2026-05-05 19:36 | 46.12069 | 8.70160 | 18540 ft | 341 kts | 170° |
| 2026-05-05 19:36 | 46.09739 | 8.70979 | 17004 ft | 347 kts | 170° |
| 2026-05-05 19:36 | 46.07386 | 8.71808 | 15514 ft | 350 kts | 169° |
| 2026-05-05 19:36 | 46.05006 | 8.72645 | 14072 ft | 352 kts | 169° |
| 2026-05-05 19:37 | 46.02633 | 8.73475 | 13024 ft | 343 kts | 168° |
| 2026-05-05 19:37 | 46.00442 | 8.74252 | 12990 ft | 307 kts | 169° |
| 2026-05-05 19:37 | 45.98430 | 8.74957 | 12983 ft | 293 kts | 169° |
| 2026-05-05 19:37 | 45.96452 | 8.75638 | 12991 ft | 293 kts | 169° |
| 2026-05-05 19:38 | 45.94706 | 8.76245 | 12989 ft | 294 kts | 169° |
| 2026-05-05 19:38 | 45.92719 | 8.76941 | 12988 ft | 294 kts | 169° |
| 2026-05-05 19:38 | 45.90751 | 8.77634 | 12575 ft | 298 kts | 169° |
| 2026-05-05 19:38 | 45.88722 | 8.78338 | 11999 ft | 293 kts | 169° |
| 2026-05-05 19:39 | 45.86759 | 8.79023 | 11992 ft | 289 kts | 169° |
| 2026-05-05 19:39 | 45.84807 | 8.79702 | 11992 ft | 290 kts | 169° |
| 2026-05-05 19:39 | 45.82853 | 8.80383 | 11988 ft | 290 kts | 169° |
| 2026-05-05 19:39 | 45.80869 | 8.81070 | 11362 ft | 296 kts | 169° |
| 2026-05-05 19:40 | 45.78899 | 8.81751 | 11067 ft | 288 kts | 168° |
| 2026-05-05 19:40 | 45.76962 | 8.82428 | 11014 ft | 286 kts | 168° |
| 2026-05-05 19:40 | 45.75052 | 8.83096 | 11002 ft | 286 kts | 169° |
| 2026-05-05 19:40 | 45.73118 | 8.83762 | 11003 ft | 287 kts | 169° |
| 2026-05-05 19:41 | 45.71207 | 8.84420 | 10937 ft | 286 kts | 168° |
| 2026-05-05 19:41 | 45.69279 | 8.85088 | 10778 ft | 286 kts | 168° |
| 2026-05-05 19:41 | 45.67347 | 8.85762 | 10580 ft | 285 kts | 168° |
| 2026-05-05 19:41 | 45.65410 | 8.86432 | 10324 ft | 286 kts | 168° |
| 2026-05-05 19:42 | 45.63483 | 8.87097 | 10041 ft | 285 kts | 168° |
| 2026-05-05 19:42 | 45.61559 | 8.87749 | 9761 ft | 282 kts | 169° |
| 2026-05-05 19:42 | 45.59637 | 8.88311 | 9471 ft | 281 kts | 171° |
| 2026-05-05 19:42 | 45.57720 | 8.88795 | 9178 ft | 280 kts | 171° |
| 2026-05-05 19:43 | 45.55811 | 8.89299 | 8888 ft | 278 kts | 171° |
| 2026-05-05 19:43 | 45.53912 | 8.89825 | 8606 ft | 277 kts | 171° |
| 2026-05-05 19:43 | 45.52041 | 8.90342 | 8318 ft | 267 kts | 171° |
| 2026-05-05 19:43 | 45.50270 | 8.90824 | 8026 ft | 253 kts | 171° |
| 2026-05-05 19:44 | 45.48550 | 8.91285 | 7731 ft | 250 kts | 171° |
| 2026-05-05 19:44 | 45.46853 | 8.91744 | 7471 ft | 249 kts | 171° |
| 2026-05-05 19:44 | 45.45178 | 8.92205 | 7196 ft | 247 kts | 171° |
| 2026-05-05 19:44 | 45.43519 | 8.92654 | 6906 ft | 239 kts | 171° |
| 2026-05-05 19:45 | 45.41902 | 8.93093 | 6634 ft | 236 kts | 171° |
| 2026-05-05 19:45 | 45.40295 | 8.93530 | 6348 ft | 234 kts | 171° |
| 2026-05-05 19:45 | 45.38703 | 8.93959 | 6054 ft | 232 kts | 171° |
| 2026-05-05 19:45 | 45.37115 | 8.94388 | 5772 ft | 232 kts | 170° |
| 2026-05-05 19:46 | 45.35533 | 8.94824 | 5486 ft | 231 kts | 170° |
| 2026-05-05 19:46 | 45.33955 | 8.95249 | 5221 ft | 231 kts | 170° |
| 2026-05-05 19:46 | 45.32381 | 8.95672 | 4939 ft | 229 kts | 170° |
| 2026-05-05 19:46 | 45.30839 | 8.96088 | 4666 ft | 229 kts | 170° |
| 2026-05-05 19:47 | 45.29256 | 8.96516 | 4376 ft | 228 kts | 170° |
| 2026-05-05 19:47 | 45.27690 | 8.96943 | 4082 ft | 229 kts | 169° |
| 2026-05-05 19:47 | 45.26164 | 8.97362 | 3984 ft | 224 kts | 169° |
| 2026-05-05 19:47 | 45.24626 | 8.97732 | 3978 ft | 224 kts | 176° |
| 2026-05-05 19:48 | 45.23131 | 8.97283 | 3980 ft | 223 kts | 211° |
| 2026-05-05 19:48 | 45.22139 | 8.95644 | 3980 ft | 226 kts | 247° |
| 2026-05-05 19:48 | 45.22040 | 8.93440 | 3990 ft | 230 kts | 283° |
| 2026-05-05 19:48 | 45.22880 | 8.91520 | 3998 ft | 233 kts | 316° |
| 2026-05-05 19:49 | 45.24172 | 8.90114 | 3984 ft | 235 kts | 323° |
| 2026-05-05 19:49 | 45.25061 | 8.89219 | 3823 ft | 236 kts | 323° |
| 2026-05-05 19:49 | 45.26841 | 8.87384 | 3518 ft | 236 kts | 323° |
| 2026-05-05 19:49 | 45.28161 | 8.86004 | 3274 ft | 235 kts | 322° |
| 2026-05-05 19:50 | 45.29471 | 8.84617 | 3023 ft | 234 kts | 323° |
| 2026-05-05 19:50 | 45.30773 | 8.83227 | 2775 ft | 232 kts | 323° |
| 2026-05-05 19:50 | 45.32027 | 8.82006 | 2507 ft | 205 kts | 330° |
| 2026-05-05 19:50 | 45.33293 | 8.81337 | 2197 ft | 191 kts | 358° |
| 2026-05-05 19:51 | 45.34580 | 8.81314 | 2383 ft | 186 kts | 352° |
| 2026-05-05 19:51 | 45.35813 | 8.80862 | 2595 ft | 186 kts | 343° |
| 2026-05-05 19:51 | 45.37071 | 8.80438 | 2757 ft | 186 kts | 353° |
| 2026-05-05 19:51 | 45.38354 | 8.80179 | 2892 ft | 187 kts | 350° |
| 2026-05-05 19:52 | 45.39626 | 8.79769 | 3014 ft | 188 kts | 348° |
| 2026-05-05 19:52 | 45.40913 | 8.79432 | 3012 ft | 188 kts | 352° |
| 2026-05-05 19:52 | 45.42196 | 8.79097 | 3015 ft | 188 kts | 348° |
| 2026-05-05 19:52 | 45.43479 | 8.78716 | 3017 ft | 188 kts | 350° |
| 2026-05-05 19:53 | 45.44763 | 8.78392 | 3018 ft | 187 kts | 350° |
| 2026-05-05 19:53 | 45.46045 | 8.78020 | 3013 ft | 187 kts | 348° |
| 2026-05-05 19:53 | 45.47320 | 8.77671 | 3011 ft | 188 kts | 351° |
| 2026-05-05 19:53 | 45.48604 | 8.77333 | 3012 ft | 188 kts | 349° |
| 2026-05-05 19:54 | 45.49883 | 8.76967 | 3011 ft | 187 kts | 351° |
| 2026-05-05 19:54 | 45.51172 | 8.76624 | 2859 ft | 188 kts | 349° |
| 2026-05-05 19:54 | 45.52441 | 8.76258 | 2613 ft | 185 kts | 351° |
| 2026-05-05 19:54 | 45.53639 | 8.75950 | 2354 ft | 169 kts | 351° |
| 2026-05-05 19:55 | 45.54739 | 8.75620 | 2141 ft | 151 kts | 349° |
| 2026-05-05 19:55 | 45.55700 | 8.75371 | 1946 ft | 134 kts | 351° |
| 2026-05-05 19:55 | 45.56607 | 8.75118 | 1777 ft | 132 kts | 349° |
| 2026-05-05 19:55 | 45.57512 | 8.74864 | 1589 ft | 132 kts | 352° |
| 2026-05-05 19:56 | 45.58405 | 8.74646 | 1436 ft | 128 kts | 349° |
| 2026-05-05 19:56 | 45.59265 | 8.74382 | 1288 ft | 127 kts | 348° |
| 2026-05-05 19:56 | 45.60142 | 8.74151 | 1123 ft | 132 kts | 349° |
| 2026-05-05 19:56 | 45.61030 | 8.73896 | 929 ft | 127 kts | 350° |
| 2026-05-05 19:57 | 45.61874 | 8.73665 | 756 ft | 120 kts | 349° |
| 2026-05-05 19:57 | 45.62383 | 8.73523 | 744 ft | 99 kts | 349° |
| 2026-05-05 19:57 | 45.63019 | 8.73351 | 738 ft | 32 kts | 349° |
| 2026-05-05 19:57 | 45.63154 | 8.73277 | 739 ft | 20 kts | 316° |
| 2026-05-05 19:58 | 45.63242 | 8.73108 | 739 ft | 22 kts | 305° |
| 2026-05-05 19:58 | 45.63333 | 8.72918 | 740 ft | 24 kts | 303° |
| 2026-05-05 19:58 | 45.63404 | 8.72744 | 738 ft | 18 kts | 284° |
| 2026-05-05 19:58 | 45.63400 | 8.72567 | 739 ft | 16 kts | 257° |
| 2026-05-05 19:59 | 45.63375 | 8.72401 | 740 ft | 18 kts | 258° |
| 2026-05-05 19:59 | 45.63351 | 8.72225 | 742 ft | 18 kts | 259° |
| 2026-05-05 19:59 | 45.63330 | 8.72067 | 740 ft | 12 kts | 259° |
| 2026-05-05 19:59 | 45.63290 | 8.71971 | 740 ft | 13 kts | 186° |
| 2026-05-05 20:00 | 45.63190 | 8.71990 | 740 ft | 16 kts | 169° |
| 2026-05-05 20:00 | 45.63072 | 8.72024 | 740 ft | 19 kts | 168° |
| 2026-05-05 20:00 | 45.62935 | 8.72063 | 739 ft | 21 kts | 169° |